sensor_id;sensor_type;location;lat;lon;timestamp;temperature;humidity
8152;DHT22;4117;53.622;9.958;2023-04-03T00:02:04;0.50;1.00
8152;DHT22;4117;53.622;9.958;2023-04-03T00:04:31;0.50;1.00
8152;DHT22;4117;53.622;9.958;2023-04-03T00:06:58;0.50;1.00
8152;DHT22;4117;53.622;9.958;2023-04-03T00:09:27;0.50;1.00
8152;DHT22;4117;53.622;9.958;2023-04-03T00:11:55;0.50;1.00
8152;DHT22;4117;53.622;9.958;2023-04-03T00:14:22;0.50;1.00
8152;DHT22;4117;53.622;9.958;2023-04-03T00:16:49;0.50;1.00
8152;DHT22;4117;53.622;9.958;2023-04-03T00:19:15;0.40;1.00
8152;DHT22;4117;53.622;9.958;2023-04-03T00:21:42;0.40;1.00
8152;DHT22;4117;53.622;9.958;2023-04-03T00:24:09;0.40;1.00
8152;DHT22;4117;53.622;9.958;2023-04-03T00:26:36;0.40;1.00
8152;DHT22;4117;53.622;9.958;2023-04-03T00:29:04;0.40;1.00
8152;DHT22;4117;53.622;9.958;2023-04-03T00:31:31;0.40;1.00
8152;DHT22;4117;53.622;9.958;2023-04-03T00:33:58;0.30;1.00
8152;DHT22;4117;53.622;9.958;2023-04-03T00:36:25;0.30;1.00
8152;DHT22;4117;53.622;9.958;2023-04-03T00:38:52;0.30;1.00
8152;DHT22;4117;53.622;9.958;2023-04-03T00:41:19;0.20;1.00
8152;DHT22;4117;53.622;9.958;2023-04-03T00:43:47;0.30;1.00
8152;DHT22;4117;53.622;9.958;2023-04-03T00:46:15;0.20;1.00
8152;DHT22;4117;53.622;9.958;2023-04-03T00:48:44;0.20;1.00
8152;DHT22;4117;53.622;9.958;2023-04-03T00:51:13;0.20;1.00
8152;DHT22;4117;53.622;9.958;2023-04-03T00:53:44;0.20;1.00
8152;DHT22;4117;53.622;9.958;2023-04-03T00:56:13;0.20;1.00
8152;DHT22;4117;53.622;9.958;2023-04-03T00:58:44;0.20;1.00
8152;DHT22;4117;53.622;9.958;2023-04-03T01:01:18;0.20;1.00
8152;DHT22;4117;53.622;9.958;2023-04-03T01:03:46;0.20;1.00
8152;DHT22;4117;53.622;9.958;2023-04-03T01:06:16;0.10;1.00
8152;DHT22;4117;53.622;9.958;2023-04-03T01:08:45;0.10;1.00
8152;DHT22;4117;53.622;9.958;2023-04-03T01:11:15;0.10;1.00
8152;DHT22;4117;53.622;9.958;2023-04-03T01:13:42;0.10;1.00
8152;DHT22;4117;53.622;9.958;2023-04-03T01:16:09;0.10;1.00
8152;DHT22;4117;53.622;9.958;2023-04-03T01:18:39;0.10;1.00
8152;DHT22;4117;53.622;9.958;2023-04-03T01:21:37;0.10;1.00
8152;DHT22;4117;53.622;9.958;2023-04-03T01:24:22;0.10;1.00
8152;DHT22;4117;53.622;9.958;2023-04-03T01:26:51;0.00;1.00
8152;DHT22;4117;53.622;9.958;2023-04-03T01:29:18;0.00;1.00
8152;DHT22;4117;53.622;9.958;2023-04-03T01:31:52;0.00;1.00
8152;DHT22;4117;53.622;9.958;2023-04-03T01:34:19;0.00;1.00
8152;DHT22;4117;53.622;9.958;2023-04-03T01:36:46;0.00;1.00
8152;DHT22;4117;53.622;9.958;2023-04-03T01:39:14;-0.10;1.00
8152;DHT22;4117;53.622;9.958;2023-04-03T01:41:41;-0.10;1.00
8152;DHT22;4117;53.622;9.958;2023-04-03T01:44:08;-0.10;1.00
8152;DHT22;4117;53.622;9.958;2023-04-03T01:46:35;-0.10;1.00
8152;DHT22;4117;53.622;9.958;2023-04-03T01:49:04;-0.10;1.00
8152;DHT22;4117;53.622;9.958;2023-04-03T01:51:31;-0.20;1.00
8152;DHT22;4117;53.622;9.958;2023-04-03T01:53:58;-0.20;1.00
8152;DHT22;4117;53.622;9.958;2023-04-03T01:56:25;-0.20;1.00
8152;DHT22;4117;53.622;9.958;2023-04-03T01:58:52;-0.20;1.00
8152;DHT22;4117;53.622;9.958;2023-04-03T02:01:19;-0.20;1.00
8152;DHT22;4117;53.622;9.958;2023-04-03T02:03:46;-0.20;1.00
8152;DHT22;4117;53.622;9.958;2023-04-03T02:06:15;-0.20;1.00
8152;DHT22;4117;53.622;9.958;2023-04-03T02:08:41;-0.20;1.00
8152;DHT22;4117;53.622;9.958;2023-04-03T02:11:08;-0.20;1.00
8152;DHT22;4117;53.622;9.958;2023-04-03T02:13:35;-0.20;1.00
8152;DHT22;4117;53.622;9.958;2023-04-03T02:16:07;-0.30;1.00
8152;DHT22;4117;53.622;9.958;2023-04-03T02:18:38;-0.30;1.00
8152;DHT22;4117;53.622;9.958;2023-04-03T02:21:05;-0.30;1.00
8152;DHT22;4117;53.622;9.958;2023-04-03T02:23:33;-0.30;1.00
8152;DHT22;4117;53.622;9.958;2023-04-03T02:26:09;-0.30;1.00
8152;DHT22;4117;53.622;9.958;2023-04-03T02:28:37;-0.30;1.00
8152;DHT22;4117;53.622;9.958;2023-04-03T02:31:04;-0.30;1.00
8152;DHT22;4117;53.622;9.958;2023-04-03T02:33:33;-0.30;1.00
8152;DHT22;4117;53.622;9.958;2023-04-03T02:36:04;-0.30;1.00
8152;DHT22;4117;53.622;9.958;2023-04-03T02:38:33;-0.40;1.00
8152;DHT22;4117;53.622;9.958;2023-04-03T02:41:01;-0.40;1.00
8152;DHT22;4117;53.622;9.958;2023-04-03T02:43:29;-0.40;1.00
8152;DHT22;4117;53.622;9.958;2023-04-03T02:45:55;-0.40;1.00
8152;DHT22;4117;53.622;9.958;2023-04-03T02:48:23;-0.40;1.00
8152;DHT22;4117;53.622;9.958;2023-04-03T02:50:50;-0.40;1.00
8152;DHT22;4117;53.622;9.958;2023-04-03T02:53:17;-0.40;1.00
8152;DHT22;4117;53.622;9.958;2023-04-03T02:55:45;-0.40;1.00
8152;DHT22;4117;53.622;9.958;2023-04-03T02:58:12;-0.40;1.00
8152;DHT22;4117;53.622;9.958;2023-04-03T03:00:40;-0.50;1.00
8152;DHT22;4117;53.622;9.958;2023-04-03T03:03:07;-0.50;1.00
8152;DHT22;4117;53.622;9.958;2023-04-03T03:05:34;-0.50;1.00
8152;DHT22;4117;53.622;9.958;2023-04-03T03:08:01;-0.50;1.00
8152;DHT22;4117;53.622;9.958;2023-04-03T03:10:28;-0.60;1.00
8152;DHT22;4117;53.622;9.958;2023-04-03T03:12:56;-0.50;1.00
8152;DHT22;4117;53.622;9.958;2023-04-03T03:15:23;-0.60;1.00
8152;DHT22;4117;53.622;9.958;2023-04-03T03:17:50;-0.60;1.00
8152;DHT22;4117;53.622;9.958;2023-04-03T03:20:17;-0.60;1.00
8152;DHT22;4117;53.622;9.958;2023-04-03T03:22:44;-0.60;1.00
8152;DHT22;4117;53.622;9.958;2023-04-03T03:25:11;-0.70;1.00
8152;DHT22;4117;53.622;9.958;2023-04-03T03:27:37;-0.70;1.00
8152;DHT22;4117;53.622;9.958;2023-04-03T03:30:07;-0.70;1.00
8152;DHT22;4117;53.622;9.958;2023-04-03T03:32:34;-0.70;1.00
8152;DHT22;4117;53.622;9.958;2023-04-03T03:35:01;-0.70;1.00
8152;DHT22;4117;53.622;9.958;2023-04-03T03:37:28;-0.70;1.00
8152;DHT22;4117;53.622;9.958;2023-04-03T03:39:54;-0.70;1.00
8152;DHT22;4117;53.622;9.958;2023-04-03T03:42:21;-0.80;1.00
8152;DHT22;4117;53.622;9.958;2023-04-03T03:44:49;-0.80;1.00
8152;DHT22;4117;53.622;9.958;2023-04-03T03:47:20;-0.80;1.00
8152;DHT22;4117;53.622;9.958;2023-04-03T03:49:47;-0.80;1.00
8152;DHT22;4117;53.622;9.958;2023-04-03T03:52:14;-0.80;1.00
8152;DHT22;4117;53.622;9.958;2023-04-03T03:54:41;-0.90;1.00
8152;DHT22;4117;53.622;9.958;2023-04-03T03:57:08;-0.80;1.00
8152;DHT22;4117;53.622;9.958;2023-04-03T03:59:37;-0.90;1.00
8152;DHT22;4117;53.622;9.958;2023-04-03T04:02:06;-0.90;1.00
8152;DHT22;4117;53.622;9.958;2023-04-03T04:04:34;-0.90;1.00
8152;DHT22;4117;53.622;9.958;2023-04-03T04:07:01;-0.80;1.00
8152;DHT22;4117;53.622;9.958;2023-04-03T04:09:27;-0.90;1.00
8152;DHT22;4117;53.622;9.958;2023-04-03T04:11:55;-0.90;1.00
8152;DHT22;4117;53.622;9.958;2023-04-03T04:14:22;-0.90;1.00
8152;DHT22;4117;53.622;9.958;2023-04-03T04:16:49;-0.90;1.00
8152;DHT22;4117;53.622;9.958;2023-04-03T04:19:16;-0.90;1.00
8152;DHT22;4117;53.622;9.958;2023-04-03T04:21:44;-0.90;1.00
8152;DHT22;4117;53.622;9.958;2023-04-03T04:24:11;-1.00;1.00
8152;DHT22;4117;53.622;9.958;2023-04-03T04:26:38;-1.00;1.00
8152;DHT22;4117;53.622;9.958;2023-04-03T04:29:05;-1.00;1.00
8152;DHT22;4117;53.622;9.958;2023-04-03T04:31:32;-1.00;1.00
8152;DHT22;4117;53.622;9.958;2023-04-03T04:33:59;-1.00;1.00
8152;DHT22;4117;53.622;9.958;2023-04-03T04:36:26;-1.00;1.00
8152;DHT22;4117;53.622;9.958;2023-04-03T04:38:54;-1.00;1.00
8152;DHT22;4117;53.622;9.958;2023-04-03T04:41:21;-1.10;1.00
8152;DHT22;4117;53.622;9.958;2023-04-03T04:43:48;-1.10;1.00
8152;DHT22;4117;53.622;9.958;2023-04-03T04:46:16;-1.10;1.00
8152;DHT22;4117;53.622;9.958;2023-04-03T04:48:43;-1.10;1.00
8152;DHT22;4117;53.622;9.958;2023-04-03T04:51:11;-1.10;1.00
8152;DHT22;4117;53.622;9.958;2023-04-03T04:53:38;-1.10;1.00
8152;DHT22;4117;53.622;9.958;2023-04-03T04:56:06;-1.10;1.00
8152;DHT22;4117;53.622;9.958;2023-04-03T04:58:34;-1.10;1.00
8152;DHT22;4117;53.622;9.958;2023-04-03T05:01:01;-1.10;1.00
8152;DHT22;4117;53.622;9.958;2023-04-03T05:03:29;-1.10;1.00
8152;DHT22;4117;53.622;9.958;2023-04-03T05:05:56;-1.10;1.00
8152;DHT22;4117;53.622;9.958;2023-04-03T05:08:23;-1.10;1.00
8152;DHT22;4117;53.622;9.958;2023-04-03T05:10:50;-1.10;1.00
8152;DHT22;4117;53.622;9.958;2023-04-03T05:13:18;-1.10;1.00
8152;DHT22;4117;53.622;9.958;2023-04-03T05:15:46;-1.10;1.00
8152;DHT22;4117;53.622;9.958;2023-04-03T05:18:13;-1.10;1.00
8152;DHT22;4117;53.622;9.958;2023-04-03T05:20:40;-1.10;1.00
8152;DHT22;4117;53.622;9.958;2023-04-03T05:23:09;-1.10;1.00
8152;DHT22;4117;53.622;9.958;2023-04-03T05:25:37;-1.10;1.00
8152;DHT22;4117;53.622;9.958;2023-04-03T05:28:05;-1.10;1.00
8152;DHT22;4117;53.622;9.958;2023-04-03T05:30:33;-1.10;1.00
8152;DHT22;4117;53.622;9.958;2023-04-03T05:33:00;-1.00;1.00
8152;DHT22;4117;53.622;9.958;2023-04-03T05:35:27;-1.10;1.00
8152;DHT22;4117;53.622;9.958;2023-04-03T05:37:54;-1.10;1.00
8152;DHT22;4117;53.622;9.958;2023-04-03T05:40:21;-1.00;1.00
8152;DHT22;4117;53.622;9.958;2023-04-03T05:42:48;-1.00;1.00
8152;DHT22;4117;53.622;9.958;2023-04-03T05:45:15;-0.90;1.00
8152;DHT22;4117;53.622;9.958;2023-04-03T05:47:43;-0.90;1.00
8152;DHT22;4117;53.622;9.958;2023-04-03T05:50:10;-0.90;1.00
8152;DHT22;4117;53.622;9.958;2023-04-03T05:52:40;-1.00;1.00
8152;DHT22;4117;53.622;9.958;2023-04-03T05:55:09;-1.00;1.00
8152;DHT22;4117;53.622;9.958;2023-04-03T05:57:36;-0.90;1.00
8152;DHT22;4117;53.622;9.958;2023-04-03T06:00:04;-0.90;1.00
8152;DHT22;4117;53.622;9.958;2023-04-03T06:02:31;-0.80;1.00
8152;DHT22;4117;53.622;9.958;2023-04-03T06:05:00;-0.80;1.00
8152;DHT22;4117;53.622;9.958;2023-04-03T06:07:27;-0.70;1.00
8152;DHT22;4117;53.622;9.958;2023-04-03T06:09:55;-0.70;1.00
8152;DHT22;4117;53.622;9.958;2023-04-03T06:12:23;-0.70;1.00
8152;DHT22;4117;53.622;9.958;2023-04-03T06:14:50;-0.60;1.00
8152;DHT22;4117;53.622;9.958;2023-04-03T06:17:19;-0.60;1.00
8152;DHT22;4117;53.622;9.958;2023-04-03T06:19:46;-0.50;1.00
8152;DHT22;4117;53.622;9.958;2023-04-03T06:22:14;-0.50;1.00
8152;DHT22;4117;53.622;9.958;2023-04-03T06:24:41;-0.50;1.00
8152;DHT22;4117;53.622;9.958;2023-04-03T06:27:10;-0.40;1.00
8152;DHT22;4117;53.622;9.958;2023-04-03T06:29:37;-0.40;1.00
8152;DHT22;4117;53.622;9.958;2023-04-03T06:32:05;-0.40;1.00
8152;DHT22;4117;53.622;9.958;2023-04-03T06:34:32;-0.30;1.00
8152;DHT22;4117;53.622;9.958;2023-04-03T06:36:59;-0.20;1.00
8152;DHT22;4117;53.622;9.958;2023-04-03T06:39:27;-0.10;1.00
8152;DHT22;4117;53.622;9.958;2023-04-03T06:41:54;-0.10;1.00
8152;DHT22;4117;53.622;9.958;2023-04-03T06:44:21;0.10;1.00
8152;DHT22;4117;53.622;9.958;2023-04-03T06:46:48;0.10;1.00
8152;DHT22;4117;53.622;9.958;2023-04-03T06:49:15;0.20;1.00
8152;DHT22;4117;53.622;9.958;2023-04-03T06:51:42;0.40;1.00
8152;DHT22;4117;53.622;9.958;2023-04-03T06:54:09;0.60;1.00
8152;DHT22;4117;53.622;9.958;2023-04-03T06:56:39;0.60;1.00
8152;DHT22;4117;53.622;9.958;2023-04-03T06:59:06;0.80;1.00
8152;DHT22;4117;53.622;9.958;2023-04-03T07:01:34;0.90;1.00
8152;DHT22;4117;53.622;9.958;2023-04-03T07:04:01;1.40;1.00
8152;DHT22;4117;53.622;9.958;2023-04-03T07:06:27;1.80;1.00
8152;DHT22;4117;53.622;9.958;2023-04-03T07:08:55;2.60;1.00
8152;DHT22;4117;53.622;9.958;2023-04-03T07:11:22;3.10;1.00
8152;DHT22;4117;53.622;9.958;2023-04-03T07:13:50;3.60;1.00
8152;DHT22;4117;53.622;9.958;2023-04-03T07:16:17;4.00;1.00
8152;DHT22;4117;53.622;9.958;2023-04-03T07:18:45;4.20;1.00
8152;DHT22;4117;53.622;9.958;2023-04-03T07:21:12;4.50;1.00
8152;DHT22;4117;53.622;9.958;2023-04-03T07:23:40;4.70;1.00
8152;DHT22;4117;53.622;9.958;2023-04-03T07:26:08;4.80;1.00
8152;DHT22;4117;53.622;9.958;2023-04-03T07:28:35;4.90;1.00
8152;DHT22;4117;53.622;9.958;2023-04-03T07:31:07;4.90;1.00
8152;DHT22;4117;53.622;9.958;2023-04-03T07:33:37;5.10;1.00
8152;DHT22;4117;53.622;9.958;2023-04-03T07:36:06;5.10;1.00
8152;DHT22;4117;53.622;9.958;2023-04-03T07:38:33;5.10;1.00
8152;DHT22;4117;53.622;9.958;2023-04-03T07:41:01;5.10;1.00
8152;DHT22;4117;53.622;9.958;2023-04-03T07:43:28;5.00;1.00
8152;DHT22;4117;53.622;9.958;2023-04-03T07:45:54;5.00;1.00
8152;DHT22;4117;53.622;9.958;2023-04-03T07:48:24;5.00;1.00
8152;DHT22;4117;53.622;9.958;2023-04-03T07:50:52;4.90;1.00
8152;DHT22;4117;53.622;9.958;2023-04-03T07:53:19;5.00;1.00
8152;DHT22;4117;53.622;9.958;2023-04-03T07:55:47;4.80;1.00
8152;DHT22;4117;53.622;9.958;2023-04-03T07:58:16;4.90;1.00
8152;DHT22;4117;53.622;9.958;2023-04-03T08:00:45;5.10;1.00
8152;DHT22;4117;53.622;9.958;2023-04-03T08:03:12;5.20;1.00
8152;DHT22;4117;53.622;9.958;2023-04-03T08:05:41;5.20;1.00
8152;DHT22;4117;53.622;9.958;2023-04-03T08:08:10;5.20;1.00
8152;DHT22;4117;53.622;9.958;2023-04-03T08:10:37;5.20;1.00
8152;DHT22;4117;53.622;9.958;2023-04-03T08:13:05;5.00;1.00
8152;DHT22;4117;53.622;9.958;2023-04-03T08:15:32;5.10;1.00
8152;DHT22;4117;53.622;9.958;2023-04-03T08:18:00;5.20;1.00
8152;DHT22;4117;53.622;9.958;2023-04-03T08:20:27;5.30;1.00
8152;DHT22;4117;53.622;9.958;2023-04-03T08:22:55;5.40;1.00
8152;DHT22;4117;53.622;9.958;2023-04-03T08:25:22;5.40;1.00
8152;DHT22;4117;53.622;9.958;2023-04-03T08:27:49;5.30;1.00
8152;DHT22;4117;53.622;9.958;2023-04-03T08:30:16;5.20;1.00
8152;DHT22;4117;53.622;9.958;2023-04-03T08:32:43;5.10;1.00
8152;DHT22;4117;53.622;9.958;2023-04-03T08:35:11;5.20;1.00
8152;DHT22;4117;53.622;9.958;2023-04-03T08:37:39;5.30;1.00
8152;DHT22;4117;53.622;9.958;2023-04-03T08:40:13;5.30;1.00
8152;DHT22;4117;53.622;9.958;2023-04-03T08:42:49;5.20;1.00
8152;DHT22;4117;53.622;9.958;2023-04-03T08:45:22;5.20;1.00
8152;DHT22;4117;53.622;9.958;2023-04-03T08:47:57;5.20;1.00
8152;DHT22;4117;53.622;9.958;2023-04-03T08:50:30;5.20;1.00
8152;DHT22;4117;53.622;9.958;2023-04-03T08:52:59;5.10;1.00
8152;DHT22;4117;53.622;9.958;2023-04-03T08:55:33;5.10;1.00
8152;DHT22;4117;53.622;9.958;2023-04-03T08:58:02;5.10;1.00
8152;DHT22;4117;53.622;9.958;2023-04-03T09:00:34;5.20;1.00
8152;DHT22;4117;53.622;9.958;2023-04-03T09:03:10;5.20;1.00
8152;DHT22;4117;53.622;9.958;2023-04-03T09:05:41;5.30;1.00
8152;DHT22;4117;53.622;9.958;2023-04-03T09:08:18;5.20;1.00
8152;DHT22;4117;53.622;9.958;2023-04-03T09:10:49;5.30;1.00
8152;DHT22;4117;53.622;9.958;2023-04-03T09:13:26;5.10;1.00
8152;DHT22;4117;53.622;9.958;2023-04-03T09:15:56;5.20;1.00
8152;DHT22;4117;53.622;9.958;2023-04-03T09:18:28;5.30;1.00
8152;DHT22;4117;53.622;9.958;2023-04-03T09:21:01;5.30;1.00
8152;DHT22;4117;53.622;9.958;2023-04-03T09:23:35;5.40;1.00
8152;DHT22;4117;53.622;9.958;2023-04-03T09:26:07;5.30;1.00
8152;DHT22;4117;53.622;9.958;2023-04-03T09:28:37;5.30;1.00
8152;DHT22;4117;53.622;9.958;2023-04-03T09:31:16;5.30;1.00
8152;DHT22;4117;53.622;9.958;2023-04-03T09:33:45;5.30;1.00
8152;DHT22;4117;53.622;9.958;2023-04-03T09:36:13;5.30;1.00
8152;DHT22;4117;53.622;9.958;2023-04-03T09:38:40;5.30;1.00
8152;DHT22;4117;53.622;9.958;2023-04-03T09:41:15;5.30;1.00
8152;DHT22;4117;53.622;9.958;2023-04-03T09:43:52;5.40;1.00
8152;DHT22;4117;53.622;9.958;2023-04-03T09:46:28;5.40;1.00
8152;DHT22;4117;53.622;9.958;2023-04-03T09:48:58;5.50;1.00
8152;DHT22;4117;53.622;9.958;2023-04-03T09:51:27;5.50;1.00
8152;DHT22;4117;53.622;9.958;2023-04-03T09:53:55;5.60;1.00
8152;DHT22;4117;53.622;9.958;2023-04-03T09:56:25;5.70;1.00
8152;DHT22;4117;53.622;9.958;2023-04-03T09:59:08;5.50;1.00
8152;DHT22;4117;53.622;9.958;2023-04-03T10:01:44;5.50;1.00
8152;DHT22;4117;53.622;9.958;2023-04-03T10:04:23;5.60;1.00
8152;DHT22;4117;53.622;9.958;2023-04-03T10:06:51;5.70;1.00
8152;DHT22;4117;53.622;9.958;2023-04-03T10:09:20;5.70;1.00
8152;DHT22;4117;53.622;9.958;2023-04-03T10:12:07;5.70;1.00
8152;DHT22;4117;53.622;9.958;2023-04-03T10:14:37;5.70;1.00
8152;DHT22;4117;53.622;9.958;2023-04-03T10:17:17;5.90;1.00
8152;DHT22;4117;53.622;9.958;2023-04-03T10:19:47;6.00;1.00
8152;DHT22;4117;53.622;9.958;2023-04-03T10:22:20;6.00;1.00
8152;DHT22;4117;53.622;9.958;2023-04-03T10:25:00;6.10;1.00
8152;DHT22;4117;53.622;9.958;2023-04-03T10:27:40;6.10;1.00
8152;DHT22;4117;53.622;9.958;2023-04-03T10:30:19;6.20;1.00
8152;DHT22;4117;53.622;9.958;2023-04-03T10:32:55;6.30;1.00
8152;DHT22;4117;53.622;9.958;2023-04-03T10:35:34;6.30;1.00
8152;DHT22;4117;53.622;9.958;2023-04-03T10:38:11;6.30;1.00
8152;DHT22;4117;53.622;9.958;2023-04-03T10:40:47;6.30;1.00
8152;DHT22;4117;53.622;9.958;2023-04-03T10:43:21;6.30;1.00
8152;DHT22;4117;53.622;9.958;2023-04-03T10:45:57;6.30;1.00
8152;DHT22;4117;53.622;9.958;2023-04-03T10:48:40;6.30;1.00
8152;DHT22;4117;53.622;9.958;2023-04-03T10:51:16;6.50;1.00
8152;DHT22;4117;53.622;9.958;2023-04-03T10:53:52;6.50;1.00
8152;DHT22;4117;53.622;9.958;2023-04-03T10:56:28;6.60;1.00
8152;DHT22;4117;53.622;9.958;2023-04-03T10:59:02;6.50;1.00
8152;DHT22;4117;53.622;9.958;2023-04-03T11:01:38;6.60;1.00
8152;DHT22;4117;53.622;9.958;2023-04-03T11:04:07;6.80;1.00
8152;DHT22;4117;53.622;9.958;2023-04-03T11:06:40;6.90;1.00
8152;DHT22;4117;53.622;9.958;2023-04-03T11:09:18;6.90;1.00
8152;DHT22;4117;53.622;9.958;2023-04-03T11:11:47;6.90;1.00
8152;DHT22;4117;53.622;9.958;2023-04-03T11:14:24;6.80;1.00
8152;DHT22;4117;53.622;9.958;2023-04-03T11:16:59;6.70;1.00
8152;DHT22;4117;53.622;9.958;2023-04-03T11:19:34;6.80;1.00
8152;DHT22;4117;53.622;9.958;2023-04-03T11:22:04;7.10;1.00
8152;DHT22;4117;53.622;9.958;2023-04-03T11:24:37;7.10;1.00
8152;DHT22;4117;53.622;9.958;2023-04-03T11:27:08;7.00;1.00
8152;DHT22;4117;53.622;9.958;2023-04-03T11:29:41;6.90;1.00
8152;DHT22;4117;53.622;9.958;2023-04-03T11:32:24;6.70;1.00
8152;DHT22;4117;53.622;9.958;2023-04-03T11:34:56;6.70;1.00
8152;DHT22;4117;53.622;9.958;2023-04-03T11:37:28;6.70;1.00
8152;DHT22;4117;53.622;9.958;2023-04-03T11:39:58;6.80;1.00
8152;DHT22;4117;53.622;9.958;2023-04-03T11:42:36;6.80;1.00
8152;DHT22;4117;53.622;9.958;2023-04-03T11:45:29;6.80;1.00
8152;DHT22;4117;53.622;9.958;2023-04-03T11:47:58;6.90;1.00
8152;DHT22;4117;53.622;9.958;2023-04-03T11:50:47;7.10;1.00
8152;DHT22;4117;53.622;9.958;2023-04-03T11:53:40;7.00;1.00
8152;DHT22;4117;53.622;9.958;2023-04-03T11:56:31;7.00;1.00
8152;DHT22;4117;53.622;9.958;2023-04-03T11:59:19;7.10;1.00
8152;DHT22;4117;53.622;9.958;2023-04-03T12:01:51;7.20;1.00
8152;DHT22;4117;53.622;9.958;2023-04-03T12:04:19;7.40;1.00
8152;DHT22;4117;53.622;9.958;2023-04-03T12:09:58;7.50;1.00
8152;DHT22;4117;53.622;9.958;2023-04-03T12:12:34;7.40;1.00
8152;DHT22;4117;53.622;9.958;2023-04-03T12:15:24;7.40;1.00
8152;DHT22;4117;53.622;9.958;2023-04-03T12:17:53;7.30;1.00
8152;DHT22;4117;53.622;9.958;2023-04-03T12:20:54;7.20;1.00
8152;DHT22;4117;53.622;9.958;2023-04-03T12:23:27;7.30;1.00
8152;DHT22;4117;53.622;9.958;2023-04-03T12:26:01;7.60;1.00
8152;DHT22;4117;53.622;9.958;2023-04-03T12:28:36;7.80;1.00
8152;DHT22;4117;53.622;9.958;2023-04-03T12:31:04;7.90;1.00
8152;DHT22;4117;53.622;9.958;2023-04-03T12:33:43;8.00;1.00
8152;DHT22;4117;53.622;9.958;2023-04-03T12:36:17;8.20;1.00
8152;DHT22;4117;53.622;9.958;2023-04-03T12:39:04;8.30;1.00
8152;DHT22;4117;53.622;9.958;2023-04-03T12:41:38;8.40;1.00
8152;DHT22;4117;53.622;9.958;2023-04-03T12:44:38;8.30;1.00
8152;DHT22;4117;53.622;9.958;2023-04-03T12:47:23;8.30;1.00
8152;DHT22;4117;53.622;9.958;2023-04-03T12:49:53;8.40;1.00
8152;DHT22;4117;53.622;9.958;2023-04-03T12:52:32;8.40;1.00
8152;DHT22;4117;53.622;9.958;2023-04-03T12:55:00;8.40;1.00
8152;DHT22;4117;53.622;9.958;2023-04-03T12:57:30;8.30;1.00
8152;DHT22;4117;53.622;9.958;2023-04-03T12:59:58;8.40;1.00
8152;DHT22;4117;53.622;9.958;2023-04-03T13:02:27;8.40;1.00
8152;DHT22;4117;53.622;9.958;2023-04-03T13:04:58;8.20;1.00
8152;DHT22;4117;53.622;9.958;2023-04-03T13:07:28;8.20;1.00
8152;DHT22;4117;53.622;9.958;2023-04-03T13:10:00;8.00;1.00
8152;DHT22;4117;53.622;9.958;2023-04-03T13:12:28;8.00;1.00
8152;DHT22;4117;53.622;9.958;2023-04-03T13:14:57;7.90;1.00
8152;DHT22;4117;53.622;9.958;2023-04-03T13:17:26;7.90;1.00
8152;DHT22;4117;53.622;9.958;2023-04-03T13:19:55;7.90;1.00
8152;DHT22;4117;53.622;9.958;2023-04-03T13:22:37;8.10;1.00
8152;DHT22;4117;53.622;9.958;2023-04-03T13:25:11;8.10;1.00
8152;DHT22;4117;53.622;9.958;2023-04-03T13:27:40;8.10;1.00
8152;DHT22;4117;53.622;9.958;2023-04-03T13:30:28;8.20;1.00
8152;DHT22;4117;53.622;9.958;2023-04-03T13:32:56;8.00;1.00
8152;DHT22;4117;53.622;9.958;2023-04-03T13:35:35;8.10;1.00
8152;DHT22;4117;53.622;9.958;2023-04-03T13:38:07;8.20;1.00
8152;DHT22;4117;53.622;9.958;2023-04-03T13:40:48;8.20;1.00
8152;DHT22;4117;53.622;9.958;2023-04-03T13:43:20;8.20;1.00
8152;DHT22;4117;53.622;9.958;2023-04-03T13:45:57;8.10;1.00
8152;DHT22;4117;53.622;9.958;2023-04-03T13:48:25;8.20;1.00
8152;DHT22;4117;53.622;9.958;2023-04-03T13:50:59;8.20;1.00
8152;DHT22;4117;53.622;9.958;2023-04-03T13:53:27;8.10;1.00
8152;DHT22;4117;53.622;9.958;2023-04-03T13:55:59;8.10;1.00
8152;DHT22;4117;53.622;9.958;2023-04-03T13:58:27;8.10;1.00
8152;DHT22;4117;53.622;9.958;2023-04-03T14:00:56;8.00;1.00
8152;DHT22;4117;53.622;9.958;2023-04-03T14:03:29;8.20;1.00
8152;DHT22;4117;53.622;9.958;2023-04-03T14:05:58;8.10;1.00
8152;DHT22;4117;53.622;9.958;2023-04-03T14:08:26;8.20;1.00
8152;DHT22;4117;53.622;9.958;2023-04-03T14:10:53;8.20;1.00
8152;DHT22;4117;53.622;9.958;2023-04-03T14:13:21;8.30;1.00
8152;DHT22;4117;53.622;9.958;2023-04-03T14:15:48;8.20;1.00
8152;DHT22;4117;53.622;9.958;2023-04-03T14:18:19;8.20;1.00
8152;DHT22;4117;53.622;9.958;2023-04-03T14:20:47;8.40;1.00
8152;DHT22;4117;53.622;9.958;2023-04-03T14:23:16;8.40;1.00
8152;DHT22;4117;53.622;9.958;2023-04-03T14:25:43;8.50;1.00
8152;DHT22;4117;53.622;9.958;2023-04-03T14:28:17;8.40;1.00
8152;DHT22;4117;53.622;9.958;2023-04-03T14:30:45;8.40;1.00
8152;DHT22;4117;53.622;9.958;2023-04-03T14:33:15;8.40;1.00
8152;DHT22;4117;53.622;9.958;2023-04-03T14:35:42;8.30;1.00
8152;DHT22;4117;53.622;9.958;2023-04-03T14:38:23;8.40;1.00
8152;DHT22;4117;53.622;9.958;2023-04-03T14:40:50;8.40;1.00
8152;DHT22;4117;53.622;9.958;2023-04-03T14:43:17;8.60;1.00
8152;DHT22;4117;53.622;9.958;2023-04-03T14:45:45;8.60;1.00
8152;DHT22;4117;53.622;9.958;2023-04-03T14:48:17;8.80;1.00
8152;DHT22;4117;53.622;9.958;2023-04-03T14:50:44;8.90;1.00
8152;DHT22;4117;53.622;9.958;2023-04-03T14:53:13;8.90;1.00
8152;DHT22;4117;53.622;9.958;2023-04-03T14:55:45;9.00;1.00
8152;DHT22;4117;53.622;9.958;2023-04-03T14:58:13;9.00;1.00
8152;DHT22;4117;53.622;9.958;2023-04-03T15:00:42;8.90;1.00
8152;DHT22;4117;53.622;9.958;2023-04-03T15:03:13;8.90;1.00
8152;DHT22;4117;53.622;9.958;2023-04-03T15:05:41;8.70;1.00
8152;DHT22;4117;53.622;9.958;2023-04-03T15:08:17;8.50;1.00
8152;DHT22;4117;53.622;9.958;2023-04-03T15:10:46;8.90;1.00
8152;DHT22;4117;53.622;9.958;2023-04-03T15:13:13;9.10;1.00
8152;DHT22;4117;53.622;9.958;2023-04-03T15:15:40;9.40;1.00
8152;DHT22;4117;53.622;9.958;2023-04-03T15:18:12;9.60;1.00
8152;DHT22;4117;53.622;9.958;2023-04-03T15:20:40;9.20;1.00
8152;DHT22;4117;53.622;9.958;2023-04-03T15:23:10;9.20;1.00
8152;DHT22;4117;53.622;9.958;2023-04-03T15:25:37;9.30;1.00
8152;DHT22;4117;53.622;9.958;2023-04-03T15:28:08;9.20;1.00
8152;DHT22;4117;53.622;9.958;2023-04-03T15:30:36;8.90;1.00
8152;DHT22;4117;53.622;9.958;2023-04-03T15:33:05;8.60;1.00
8152;DHT22;4117;53.622;9.958;2023-04-03T15:35:32;8.50;1.00
8152;DHT22;4117;53.622;9.958;2023-04-03T15:37:59;8.50;1.00
8152;DHT22;4117;53.622;9.958;2023-04-03T15:40:26;8.60;1.00
8152;DHT22;4117;53.622;9.958;2023-04-03T15:42:53;8.50;1.00
8152;DHT22;4117;53.622;9.958;2023-04-03T15:45:21;8.40;1.00
8152;DHT22;4117;53.622;9.958;2023-04-03T15:47:48;8.30;1.00
8152;DHT22;4117;53.622;9.958;2023-04-03T15:50:15;8.60;1.00
8152;DHT22;4117;53.622;9.958;2023-04-03T15:52:42;8.90;1.00
8152;DHT22;4117;53.622;9.958;2023-04-03T15:55:09;8.80;1.00
8152;DHT22;4117;53.622;9.958;2023-04-03T15:57:36;9.00;1.00
8152;DHT22;4117;53.622;9.958;2023-04-03T16:00:04;9.10;1.00
8152;DHT22;4117;53.622;9.958;2023-04-03T16:02:33;8.80;1.00
8152;DHT22;4117;53.622;9.958;2023-04-03T16:05:01;8.80;1.00
8152;DHT22;4117;53.622;9.958;2023-04-03T16:07:29;8.80;1.00
8152;DHT22;4117;53.622;9.958;2023-04-03T16:09:56;9.00;1.00
8152;DHT22;4117;53.622;9.958;2023-04-03T16:12:23;8.90;1.00
8152;DHT22;4117;53.622;9.958;2023-04-03T16:14:50;8.70;1.00
8152;DHT22;4117;53.622;9.958;2023-04-03T16:17:17;8.50;1.00
8152;DHT22;4117;53.622;9.958;2023-04-03T16:19:45;8.40;1.00
8152;DHT22;4117;53.622;9.958;2023-04-03T16:22:12;8.20;1.00
8152;DHT22;4117;53.622;9.958;2023-04-03T16:24:39;8.10;1.00
8152;DHT22;4117;53.622;9.958;2023-04-03T16:27:06;8.10;1.00
8152;DHT22;4117;53.622;9.958;2023-04-03T16:29:33;8.10;1.00
8152;DHT22;4117;53.622;9.958;2023-04-03T16:32:02;8.00;1.00
8152;DHT22;4117;53.622;9.958;2023-04-03T16:34:29;8.00;1.00
8152;DHT22;4117;53.622;9.958;2023-04-03T16:36:59;7.90;1.00
8152;DHT22;4117;53.622;9.958;2023-04-03T16:39:26;7.80;1.00
8152;DHT22;4117;53.622;9.958;2023-04-03T16:41:53;7.90;1.00
8152;DHT22;4117;53.622;9.958;2023-04-03T16:44:20;7.90;1.00
8152;DHT22;4117;53.622;9.958;2023-04-03T16:46:47;7.90;1.00
8152;DHT22;4117;53.622;9.958;2023-04-03T16:49:14;7.90;1.00
8152;DHT22;4117;53.622;9.958;2023-04-03T16:51:40;7.70;1.00